Time;durP1;ratioP1;P1;durP2;ratioP2;P2;SDS_P1;SDS_P2;PMS_P1;PMS_P2;Temp;Humidity;BMP_temperature;BMP_pressure;BME280_temperature;BME280_humidity;BME280_pressure;Samples;Min_cycle;Max_cycle;Signal;HPM_P1;HPM_P2
2022/09/25 00:00:57;;;;;;;5.75;2.38;;;;;;;10.23;71.65;101807.81;4991009;28;20404;-45
2022/09/25 00:03:27;;;;;;;6.60;2.50;;;;;;;10.22;71.44;101803.41;4996300;28;20069;-46
2022/09/25 00:06:04;;;;;;;5.28;2.90;;;;;;;10.20;71.66;101795.41;4991417;28;20167;-49
2022/09/25 00:08:33;;;;;;;3.88;2.38;;;;;;;10.17;71.48;101804.34;4998736;28;20054;-44
2022/09/25 00:11:06;;;;;;;5.47;2.47;;;;;;;10.12;71.74;101798.94;4999740;28;20034;-45
2022/09/25 00:13:33;;;;;;;6.45;2.92;;;;;;;10.10;71.76;101806.72;5010643;28;20061;-48
2022/09/25 00:16:01;;;;;;;7.72;2.28;;;;;;;10.09;71.90;101807.84;5004944;28;20048;-46
2022/09/25 00:21:15;;;;;;;5.88;1.98;;;;;;;10.10;72.05;101812.25;5012089;28;20061;-46
2022/09/25 00:23:44;;;;;;;3.80;1.75;;;;;;;10.09;72.03;101816.16;5012102;28;20080;-46
2022/09/25 00:26:12;;;;;;;5.95;2.25;;;;;;;10.08;72.13;101808.19;5008809;28;20052;-44
2022/09/25 00:28:40;;;;;;;5.43;2.10;;;;;;;10.10;72.19;101811.44;5002141;28;20052;-47
2022/09/25 00:31:08;;;;;;;3.67;2.03;;;;;;;10.10;72.23;101817.78;5007706;28;20626;-46
2022/09/25 00:33:35;;;;;;;5.88;1.60;;;;;;;10.09;72.32;101816.16;5002376;28;20046;-46
2022/09/25 00:36:05;;;;;;;6.78;2.08;;;;;;;10.07;72.46;101823.97;4993616;28;20056;-45
2022/09/25 00:38:34;;;;;;;6.88;2.60;;;;;;;10.07;72.38;101835.03;5011377;28;20499;-45
2022/09/25 00:41:02;;;;;;;7.18;1.95;;;;;;;10.06;72.56;101832.59;5011567;28;20057;-48
2022/09/25 00:43:43;;;;;;;7.32;2.45;;;;;;;10.06;72.63;101830.63;4994168;28;20119;-46
2022/09/25 00:46:32;;;;;;;6.72;2.30;;;;;;;10.03;72.66;101831.28;5010954;28;20050;-50
2022/09/25 00:49:20;;;;;;;5.10;2.30;;;;;;;10.01;72.77;101830.75;5011686;28;20044;-45
2022/09/25 00:51:58;;;;;;;5.07;3.33;;;;;;;10.00;72.80;101825.53;5007196;28;21214;-46
2022/09/25 00:54:29;;;;;;;5.15;2.33;;;;;;;9.99;72.90;101838.56;5003150;28;20066;-47
2022/09/25 00:56:59;;;;;;;6.55;2.70;;;;;;;9.98;72.98;101834.13;5006242;28;20045;-46
2022/09/25 00:59:33;;;;;;;5.18;2.00;;;;;;;9.96;73.21;101833.63;5003740;28;20074;-50
2022/09/25 01:02:00;;;;;;;4.50;2.00;;;;;;;9.94;73.08;101824.84;5008998;28;20053;-47
2022/09/25 01:04:31;;;;;;;4.50;2.03;;;;;;;9.92;73.33;101820.75;5006549;28;20049;-45
2022/09/25 01:06:58;;;;;;;3.55;2.00;;;;;;;9.87;73.47;101824.47;4999454;28;20046;-48
2022/09/25 01:09:27;;;;;;;8.30;2.00;;;;;;;9.85;73.47;101826.72;5003510;28;20056;-51
2022/09/25 01:11:54;;;;;;;3.95;2.45;;;;;;;9.86;73.75;101820.06;5002382;28;20150;-45
2022/09/25 01:14:25;;;;;;;6.47;2.85;;;;;;;9.88;73.74;101814.22;5002933;28;20100;-46
2022/09/25 01:17:20;;;;;;;7.80;2.42;;;;;;;9.85;73.90;101812.88;5005621;28;20045;-45
2022/09/25 01:20:11;;;;;;;3.78;1.77;;;;;;;9.82;73.73;101802.47;4964615;28;20060;-45
2022/09/25 01:22:50;;;;;;;5.70;2.60;;;;;;;9.77;73.90;101808.09;5010774;28;20050;-47
2022/09/25 01:25:44;;;;;;;5.22;2.42;;;;;;;9.77;74.07;101808.09;5009089;28;20053;-45
2022/09/25 01:28:48;;;;;;;8.07;2.75;;;;;;;9.74;74.29;101801.25;4997314;28;20073;-47
2022/09/25 01:31:34;;;;;;;4.85;2.22;;;;;;;9.75;74.09;101793.78;5010189;28;20312;-45
2022/09/25 01:34:15;;;;;;;7.30;2.58;;;;;;;9.74;74.05;101792.97;4991741;28;20405;-45
2022/09/25 01:36:50;;;;;;;4.75;2.55;;;;;;;9.70;74.02;101777.31;5006711;28;20045;-45
2022/09/25 01:39:26;;;;;;;4.75;2.80;;;;;;;9.68;74.17;101776.81;5009859;28;20057;-47
2022/09/25 01:42:05;;;;;;;6.28;2.40;;;;;;;9.64;74.12;101771.09;4997370;28;20053;-46
2022/09/25 01:44:40;;;;;;;6.70;3.47;;;;;;;9.62;74.44;101767.00;5002194;28;20056;-51
2022/09/25 01:47:11;;;;;;;7.78;3.70;;;;;;;9.62;74.44;101761.47;4998470;28;20872;-44
2022/09/25 01:49:43;;;;;;;10.70;3.67;;;;;;;9.62;74.51;101758.72;4992093;28;20480;-46
2022/09/25 01:52:16;;;;;;;11.50;4.85;;;;;;;9.60;74.42;101759.06;5003263;28;20368;-49
2022/09/25 01:54:50;;;;;;;9.90;5.10;;;;;;;9.58;74.48;101766.81;5009194;28;20403;-45
2022/09/25 01:57:35;;;;;;;11.23;3.38;;;;;;;9.56;74.68;101771.03;4998283;28;20585;-49
2022/09/25 02:00:13;;;;;;;9.32;4.00;;;;;;;9.54;74.64;101773.28;4997752;28;20414;-46
2022/09/25 02:03:03;;;;;;;7.22;4.03;;;;;;;9.53;74.71;101763.38;4996669;28;20144;-48
2022/09/25 02:05:38;;;;;;;9.20;3.70;;;;;;;9.49;74.61;101763.19;4997257;28;20407;-45
2022/09/25 02:08:21;;;;;;;8.93;4.00;;;;;;;9.43;74.62;101763.59;5000078;28;20137;-45
2022/09/25 02:10:55;;;;;;;8.15;4.28;;;;;;;9.38;74.98;101769.25;4995272;28;20038;-47
2022/09/25 02:13:28;;;;;;;12.25;6.38;;;;;;;9.35;74.90;101761.59;4998620;28;20050;-45
2022/09/25 02:15:58;;;;;;;10.32;5.10;;;;;;;9.24;75.18;101760.22;5003313;28;20046;-49
2022/09/25 02:21:32;;;;;;;7.25;4.30;;;;;;;9.17;75.57;101753.16;5009948;28;20136;-45
2022/09/25 02:24:56;;;;;;;6.90;4.05;;;;;;;9.18;76.00;101752.03;5009222;28;20060;-48
2022/09/25 02:27:28;;;;;;;7.45;3.58;;;;;;;9.17;75.67;101750.41;4980568;28;20389;-47
2022/09/25 02:29:57;;;;;;;9.80;4.55;;;;;;;9.15;75.70;101747.13;5002902;28;20042;-45
2022/09/25 02:32:28;;;;;;;7.40;3.45;;;;;;;9.18;75.74;101749.28;4998241;28;20041;-46
2022/09/25 02:34:56;;;;;;;8.85;3.65;;;;;;;9.22;75.91;101748.63;4991874;28;20060;-45
2022/09/25 02:37:23;;;;;;;5.38;3.05;;;;;;;9.28;75.97;101763.97;5009652;28;20049;-50
2022/09/25 02:39:53;;;;;;;7.32;4.18;;;;;;;9.32;76.06;101762.22;5010174;28;20049;-45
2022/09/25 02:42:57;;;;;;;7.15;3.35;;;;;;;9.35;76.15;101754.13;5008084;28;20038;-45
2022/09/25 02:45:36;;;;;;;5.85;3.20;;;;;;;9.43;75.98;101758.06;5001861;28;20054;-45
2022/09/25 02:48:17;;;;;;;9.90;4.10;;;;;;;9.50;75.98;101761.25;5008874;28;20045;-47
2022/09/25 02:51:01;;;;;;;24.88;6.15;;;;;;;9.56;75.88;101757.19;5005021;28;20129;-45
2022/09/25 02:53:41;;;;;;;8.45;4.05;;;;;;;9.56;75.99;101751.66;5003891;28;20062;-50
2022/09/25 02:56:19;;;;;;;12.60;4.40;;;;;;;9.57;75.89;101753.31;4974084;28;20128;-45
2022/09/25 02:58:52;;;;;;;5.95;3.38;;;;;;;9.58;76.04;101744.69;4998350;28;20149;-48
2022/09/25 03:01:23;;;;;;;9.93;3.85;;;;;;;9.60;76.21;101741.63;5025969;22;20052;-46
2022/09/25 03:03:54;;;;;;;8.07;3.70;;;;;;;9.61;76.09;101748.81;5045825;28;20049;-46
2022/09/25 03:06:23;;;;;;;7.80;4.80;;;;;;;9.63;76.25;101732.72;5048443;28;20044;-46
2022/09/25 03:08:55;;;;;;;9.23;2.90;;;;;;;9.64;76.26;101734.34;5045748;28;20055;-47
2022/09/25 03:11:25;;;;;;;4.75;2.63;;;;;;;9.66;76.24;101735.66;5047234;28;20056;-46
2022/09/25 03:13:55;;;;;;;3.67;2.40;;;;;;;9.64;76.24;101726.03;5045669;28;20457;-48
2022/09/25 03:16:56;;;;;;;6.22;3.20;;;;;;;9.58;76.47;101722.59;5048377;28;20466;-45
2022/09/25 03:19:28;;;;;;;8.00;3.45;;;;;;;9.55;76.31;101716.88;5048090;28;20048;-45
2022/09/25 03:21:55;;;;;;;11.23;3.58;;;;;;;9.53;76.37;101716.41;5043567;28;20060;-45
2022/09/25 03:24:21;;;;;;;5.40;2.90;;;;;;;9.44;76.54;101718.25;5048599;28;20045;-49
2022/09/25 03:26:48;;;;;;;7.00;2.67;;;;;;;9.39;76.64;101712.88;5048795;28;20051;-45
2022/09/25 03:29:16;;;;;;;7.45;3.42;;;;;;;9.36;76.78;101707.97;5047022;28;20045;-45
2022/09/25 03:31:44;;;;;;;3.88;2.75;;;;;;;9.36;76.85;101705.19;5048528;28;20053;-46
2022/09/25 03:34:13;;;;;;;12.82;4.63;;;;;;;9.34;76.73;101701.94;5045601;28;20044;-45
2022/09/25 03:36:41;;;;;;;10.38;3.25;;;;;;;9.30;76.91;101698.16;5043704;28;20047;-47
2022/09/25 03:39:09;;;;;;;5.63;2.80;;;;;;;9.22;76.99;101696.13;5040467;28;20033;-45
2022/09/25 03:41:36;;;;;;;4.13;1.90;;;;;;;9.15;76.97;101693.81;5045943;28;20060;-46
2022/09/25 03:44:03;;;;;;;7.00;2.67;;;;;;;9.08;77.32;101691.47;5047618;28;20064;-46
2022/09/25 03:46:34;;;;;;;9.38;2.72;;;;;;;9.02;77.48;101689.97;5045843;28;20053;-48
2022/09/25 03:49:03;;;;;;;6.97;2.90;;;;;;;9.02;77.59;101692.75;5046555;28;20144;-46
2022/09/25 03:51:31;;;;;;;8.15;2.85;;;;;;;9.04;77.46;101684.13;5050336;28;20435;-45
2022/09/25 03:53:57;;;;;;;5.30;2.80;;;;;;;9.06;77.31;101693.75;5033029;28;20045;-49
2022/09/25 03:56:27;;;;;;;4.25;2.90;;;;;;;9.05;77.31;101691.31;5049442;28;20049;-45
2022/09/25 03:58:55;;;;;;;7.22;3.42;;;;;;;9.01;77.45;101691.09;5049388;28;20044;-47
2022/09/25 04:01:24;;;;;;;10.15;4.10;;;;;;;8.98;77.54;101691.72;5051980;28;20053;-44
2022/09/25 04:03:51;;;;;;;12.13;4.45;;;;;;;8.97;77.45;101684.59;5051514;28;20059;-47
2022/09/25 04:06:21;;;;;;;9.68;4.97;;;;;;;8.97;77.48;101687.34;5049982;28;20129;-45
2022/09/25 04:08:48;;;;;;;7.93;5.05;;;;;;;8.97;77.47;101692.88;5049389;28;20067;-51
2022/09/25 04:11:18;;;;;;;9.63;4.90;;;;;;;8.91;77.50;101690.53;5046878;28;20081;-48
2022/09/25 04:13:45;;;;;;;10.60;4.15;;;;;;;8.87;77.66;101690.31;5048607;28;20145;-48
2022/09/25 04:16:14;;;;;;;8.52;4.53;;;;;;;8.85;77.81;101692.56;5032303;28;20047;-45
2022/09/25 04:18:44;;;;;;;11.45;4.85;;;;;;;8.85;77.81;101689.81;5048117;28;20044;-52
2022/09/25 04:21:12;;;;;;;8.50;4.78;;;;;;;8.84;77.87;101693.69;5051413;28;20053;-45
2022/09/25 04:23:40;;;;;;;11.07;5.43;;;;;;;8.77;77.79;101703.53;5050416;28;20151;-46
2022/09/25 04:26:07;;;;;;;8.40;3.70;;;;;;;8.69;78.05;101691.28;5013723;28;20149;-48
2022/09/25 04:28:35;;;;;;;8.40;3.28;;;;;;;8.64;78.09;101683.09;5026689;28;20494;-45
2022/09/25 04:31:02;;;;;;;7.80;3.80;;;;;;;8.63;78.35;101689.75;5031226;28;20509;-45
2022/09/25 04:33:46;;;;;;;8.13;2.38;;;;;;;8.59;78.28;101683.22;5049584;28;20040;-48
2022/09/25 04:36:17;;;;;;;6.38;1.85;;;;;;;8.56;78.39;101690.19;5049191;28;20134;-45
2022/09/25 04:38:47;;;;;;;8.15;2.45;;;;;;;8.54;78.56;101686.09;5050003;28;20502;-45
2022/09/25 04:41:18;;;;;;;7.28;3.75;;;;;;;8.52;78.63;101691.13;5049548;28;20053;-51
2022/09/25 04:43:45;;;;;;;6.18;2.75;;;;;;;8.52;78.65;101693.88;5050833;28;20482;-45
2022/09/25 04:46:12;;;;;;;4.40;2.10;;;;;;;8.51;78.80;101692.22;5048551;28;20045;-47
2022/09/25 04:48:47;;;;;;;5.22;3.00;;;;;;;8.53;78.90;101685.28;5050418;28;20041;-45
2022/09/25 04:51:14;;;;;;;9.32;3.22;;;;;;;8.54;78.86;101684.16;5051839;28;20087;-46
2022/09/25 04:53:41;;;;;;;8.15;3.03;;;;;;;8.54;78.97;101680.56;5051167;28;20382;-46
2022/09/25 04:56:12;;;;;;;10.95;3.92;;;;;;;8.57;79.00;101688.25;5050339;28;20063;-45
2022/09/25 04:58:47;;;;;;;7.13;2.42;;;;;;;8.59;78.95;101683.22;5050118;28;20132;-49
2022/09/25 05:01:16;;;;;;;5.25;2.92;;;;;;;8.62;78.99;101687.31;5050419;28;20069;-45
2022/09/25 05:03:46;;;;;;;8.77;3.17;;;;;;;8.61;78.98;101692.00;5049552;28;20063;-50
2022/09/25 05:06:12;;;;;;;6.70;4.00;;;;;;;8.64;78.92;101694.16;5051166;28;20041;-45
2022/09/25 05:08:39;;;;;;;8.57;4.18;;;;;;;8.68;79.09;101686.91;5051127;28;20049;-47
2022/09/25 05:11:07;;;;;;;10.93;3.33;;;;;;;8.71;79.09;101691.78;5049804;28;20041;-49
2022/09/25 05:13:36;;;;;;;9.57;4.65;;;;;;;8.77;79.10;101690.53;5047586;28;20144;-45
2022/09/25 05:16:03;;;;;;;12.73;5.30;;;;;;;8.83;79.08;101694.00;5048159;28;20112;-46
2022/09/25 05:18:32;;;;;;;17.77;7.45;;;;;;;8.87;79.19;101695.84;5045604;28;20048;-49
2022/09/25 05:21:03;;;;;;;20.27;8.00;;;;;;;8.88;79.02;101700.25;5050701;28;20043;-47
2022/09/25 05:23:30;;;;;;;21.45;7.68;;;;;;;8.90;79.21;101686.13;5049351;28;20049;-45
2022/09/25 05:26:00;;;;;;;21.98;9.93;;;;;;;8.93;79.23;101688.25;5048404;28;20049;-47
2022/09/25 05:28:31;;;;;;;13.43;5.85;;;;;;;8.97;79.29;101692.88;5045661;28;20131;-45
2022/09/25 05:31:02;;;;;;;11.95;4.03;;;;;;;8.98;79.47;101691.72;5046161;28;20041;-45
2022/09/25 05:33:31;;;;;;;11.90;4.30;;;;;;;9.00;79.36;101672.88;5042026;28;20041;-45
2022/09/25 05:36:02;;;;;;;14.35;5.45;;;;;;;9.04;79.64;101678.59;5049781;28;20044;-46
2022/09/25 05:38:32;;;;;;;14.30;4.73;;;;;;;9.04;79.54;101682.19;5050603;28;20037;-45
2022/09/25 05:41:04;;;;;;;11.85;4.75;;;;;;;9.08;79.70;101679.63;5048825;28;20056;-45
2022/09/25 05:43:32;;;;;;;9.70;2.75;;;;;;;9.06;79.60;101690.97;5046490;28;20053;-55
2022/09/25 05:45:59;;;;;;;5.07;2.30;;;;;;;9.07;80.07;101684.34;5049988;28;20052;-46
2022/09/25 05:48:26;;;;;;;7.95;2.45;;;;;;;9.09;79.83;101692.31;5047831;28;20049;-48
2022/09/25 05:50:54;;;;;;;8.90;3.45;;;;;;;9.13;79.80;101687.78;5048425;28;20055;-45
2022/09/25 05:53:22;;;;;;;3.42;2.03;;;;;;;9.13;79.91;101694.13;5047692;28;20479;-47
2022/09/25 05:55:53;;;;;;;5.78;3.05;;;;;;;9.14;79.89;101689.41;5040640;28;20056;-46
2022/09/25 05:58:20;;;;;;;4.57;1.90;;;;;;;9.14;79.85;101690.25;5042238;28;20045;-47
2022/09/25 06:00:47;;;;;;;8.27;3.75;;;;;;;9.17;80.00;101684.09;5046978;28;20048;-48
2022/09/25 06:03:15;;;;;;;5.13;2.13;;;;;;;9.22;80.04;101696.13;5050004;28;20049;-45
2022/09/25 06:05:45;;;;;;;4.80;2.22;;;;;;;9.24;79.96;101691.13;5047376;28;20076;-50
2022/09/25 06:08:13;;;;;;;8.75;4.07;;;;;;;9.25;79.89;101688.03;5048747;28;20060;-46
2022/09/25 06:10:40;;;;;;;5.85;2.92;;;;;;;9.28;79.96;101687.41;5043925;28;20491;-46
2022/09/25 06:13:07;;;;;;;6.50;3.33;;;;;;;9.30;79.92;101682.38;5028228;28;20414;-46
2022/09/25 06:15:37;;;;;;;7.00;2.92;;;;;;;9.34;79.96;101677.88;5040915;28;20041;-46
2022/09/25 06:18:05;;;;;;;6.82;2.63;;;;;;;9.38;79.80;101683.59;5048859;28;20049;-45
2022/09/25 06:20:32;;;;;;;10.68;3.75;;;;;;;9.40;79.87;101684.91;5045979;28;20071;-44
2022/09/25 06:22:59;;;;;;;8.02;2.85;;;;;;;9.42;79.82;101684.59;5029784;28;20053;-46
2022/09/25 06:25:29;;;;;;;5.80;2.97;;;;;;;9.43;79.82;101681.50;5046609;28;20041;-45
2022/09/25 06:27:59;;;;;;;6.07;2.45;;;;;;;9.43;79.79;101684.28;5047433;28;20510;-44
2022/09/25 06:30:33;;;;;;;4.60;2.58;;;;;;;9.45;79.75;101683.97;5046398;28;20513;-48
2022/09/25 06:33:11;;;;;;;6.47;2.60;;;;;;;9.45;79.84;101692.28;5047589;28;20052;-45
2022/09/25 06:35:44;;;;;;;7.82;3.70;;;;;;;9.48;79.95;101688.84;5049014;28;20048;-44
2022/09/25 06:38:11;;;;;;;4.97;2.75;;;;;;;9.50;79.78;101689.38;5049405;28;20041;-45
2022/09/25 06:40:39;;;;;;;13.07;3.28;;;;;;;9.51;79.88;101688.22;5049013;28;20218;-50
2022/09/25 06:43:12;;;;;;;5.57;3.10;;;;;;;9.52;79.70;101692.63;5049370;28;20136;-47
2022/09/25 06:45:41;;;;;;;10.85;3.70;;;;;;;9.49;80.00;101684.97;5039189;28;20052;-45
2022/09/25 06:48:11;;;;;;;10.15;3.50;;;;;;;9.51;80.02;101688.22;5047596;28;20133;-46
2022/09/25 06:50:44;;;;;;;4.75;2.40;;;;;;;9.52;80.05;101690.69;5048799;28;20045;-45
2022/09/25 06:53:11;;;;;;;6.40;2.75;;;;;;;9.52;80.05;101684.34;5049472;28;20053;-44
2022/09/25 06:55:39;;;;;;;6.53;2.75;;;;;;;9.54;80.00;101688.41;5048867;28;20447;-46
2022/09/25 06:58:10;;;;;;;6.95;3.08;;;;;;;9.56;80.09;101674.28;5049000;28;20068;-45
2022/09/25 07:00:36;;;;;;;8.50;3.00;;;;;;;9.60;79.99;101673.34;5048683;28;20056;-46
2022/09/25 07:05:49;;;;;;;5.90;2.67;;;;;;;9.64;79.99;101676.28;5043346;28;20041;-50
2022/09/25 07:08:19;;;;;;;4.63;2.30;;;;;;;9.66;79.93;101679.56;5047774;28;20494;-45
2022/09/25 07:10:51;;;;;;;6.43;2.42;;;;;;;9.66;80.11;101668.50;5046112;28;20049;-48
2022/09/25 07:13:24;;;;;;;3.97;2.38;;;;;;;9.61;79.92;101661.13;5044271;28;20098;-45
2022/09/25 07:15:53;;;;;;;4.47;2.55;;;;;;;9.58;80.11;101663.72;5045252;28;20052;-45
2022/09/25 07:18:21;;;;;;;4.90;1.88;;;;;;;9.58;80.13;101670.06;5044132;28;20041;-45
2022/09/25 07:20:49;;;;;;;4.07;2.40;;;;;;;9.63;80.30;101655.31;5046073;28;20044;-46
2022/09/25 07:23:21;;;;;;;5.50;2.45;;;;;;;9.66;80.31;101651.91;5046372;28;20128;-50
2022/09/25 07:25:48;;;;;;;7.72;2.70;;;;;;;9.68;80.26;101652.41;5042849;28;20135;-47
2022/09/25 07:28:17;;;;;;;6.28;2.15;;;;;;;9.65;80.22;101650.28;5044242;28;20110;-46
2022/09/25 07:30:45;;;;;;;5.40;2.10;;;;;;;9.66;80.45;101640.84;5020476;28;20073;-52
2022/09/25 07:33:12;;;;;;;5.30;2.00;;;;;;;9.69;80.46;101631.91;5049374;28;20037;-46
2022/09/25 07:35:39;;;;;;;4.68;2.47;;;;;;;9.73;80.42;101632.91;5063418;28;20395;-45
2022/09/25 07:38:06;;;;;;;3.10;1.80;;;;;;;9.74;80.28;101632.56;5048374;28;20049;-45
2022/09/25 07:40:34;;;;;;;10.25;2.78;;;;;;;9.79;80.55;101634.41;5030786;28;20049;-45
2022/09/25 07:43:01;;;;;;;8.85;2.83;;;;;;;9.82;80.41;101639.31;5047346;28;20033;-48
2022/09/25 07:45:29;;;;;;;5.10;2.40;;;;;;;9.82;80.35;101648.41;5048335;28;20041;-48
2022/09/25 07:48:01;;;;;;;5.72;2.33;;;;;;;9.86;80.36;101634.75;5047402;28;20506;-45
2022/09/25 07:50:31;;;;;;;3.80;1.80;;;;;;;9.90;80.42;101644.03;5049328;28;20116;-46
2022/09/25 07:52:58;;;;;;;4.22;1.90;;;;;;;9.92;80.40;101643.72;5047048;28;20111;-47
2022/09/25 07:55:27;;;;;;;4.72;1.90;;;;;;;9.93;80.34;101637.88;5041033;28;20465;-45
2022/09/25 07:57:57;;;;;;;6.00;1.88;;;;;;;9.97;80.44;101635.28;5044372;28;20059;-46
2022/09/25 08:00:24;;;;;;;4.43;1.75;;;;;;;9.98;80.13;101636.94;5042035;28;20053;-43
2022/09/25 08:02:56;;;;;;;12.02;3.60;;;;;;;10.03;80.38;101640.38;5027373;28;20072;-45
2022/09/25 08:05:23;;;;;;;;;;;;;;;10.05;80.14;101648.34;5030459;28;20041;-47
2022/09/25 08:07:51;;;;;;;8.05;2.08;;;;;;;10.05;80.01;101649.16;5047970;28;19927;-48
2022/09/25 08:10:17;;;;;;;6.20;2.00;;;;;;;10.08;80.00;101648.53;5046120;28;20513;-43
2022/09/25 08:12:44;;;;;;;9.05;1.70;;;;;;;10.13;79.86;101647.59;5040211;28;20053;-45
2022/09/25 08:15:13;;;;;;;5.70;2.90;;;;;;;10.17;80.01;101643.03;5044977;28;20043;-45
2022/09/25 08:17:41;;;;;;;4.40;1.90;;;;;;;10.19;80.03;101647.09;5046464;28;20056;-47
2022/09/25 08:20:09;;;;;;;6.45;2.08;;;;;;;10.20;79.89;101645.16;5036434;28;20045;-47
2022/09/25 08:22:36;;;;;;;5.97;2.00;;;;;;;10.23;79.89;101644.53;5047877;28;20762;-47
2022/09/25 08:25:03;;;;;;;4.03;1.80;;;;;;;10.25;79.78;101637.53;5047972;28;20495;-50
2022/09/25 08:27:30;;;;;;;3.85;1.83;;;;;;;10.28;79.48;101642.44;5048111;28;20064;-47
2022/09/25 08:29:57;;;;;;;3.80;1.83;;;;;;;10.29;79.61;101632.19;5047858;28;20084;-44
2022/09/25 08:32:24;;;;;;;7.07;2.67;;;;;;;10.32;79.60;101637.91;5047733;28;20095;-44
2022/09/25 08:34:51;;;;;;;10.25;2.45;;;;;;;10.36;79.65;101627.78;5049988;28;20060;-48
2022/09/25 08:37:19;;;;;;;4.70;1.65;;;;;;;10.39;79.45;101632.69;5051761;28;20047;-45
2022/09/25 08:39:46;;;;;;;3.33;2.22;;;;;;;10.44;79.40;101622.59;5050622;28;20045;-47
2022/09/25 08:42:19;;;;;;;4.40;3.35;;;;;;;10.50;79.39;101615.78;5050864;28;20216;-46
2022/09/25 08:49:00;;;;;;;4.28;1.60;;;;;;;10.57;79.40;101616.91;5051610;28;20049;-44
2022/09/25 08:50:40;;;;;;;2.15;1.67;;;;;;;10.72;78.95;101615.63;5051169;28;20711;-45
2022/09/25 08:53:22;;;;;;;4.28;1.92;;;;;;;10.78;79.03;101619.84;5051192;28;20525;-46
2022/09/25 08:58:49;;;;;;;5.60;1.80;;;;;;;10.89;78.94;101608.13;5051537;28;20141;-50
2022/09/25 09:01:20;;;;;;;2.95;1.80;;;;;;;10.95;78.89;101594.94;5050032;28;20049;-45
2022/09/25 09:03:56;;;;;;;3.65;1.50;;;;;;;11.00;78.65;101594.78;5049715;28;20048;-46
2022/09/25 09:06:25;;;;;;;4.93;1.60;;;;;;;11.02;78.72;101589.72;5051079;28;20037;-52
2022/09/25 09:09:18;;;;;;;8.20;1.90;;;;;;;11.06;78.52;101587.09;5051151;28;20052;-45
2022/09/25 09:11:58;;;;;;;4.05;2.10;;;;;;;11.07;78.54;101580.44;5040226;28;20129;-45
2022/09/25 09:14:31;;;;;;;4.43;2.15;;;;;;;11.09;78.41;101578.97;5050898;28;20045;-43
2022/09/25 09:17:02;;;;;;;7.30;2.05;;;;;;;11.12;78.50;101569.97;5040391;28;20047;-51
2022/09/25 09:19:52;;;;;;;4.85;1.60;;;;;;;11.16;78.45;101572.91;5041617;28;20137;-43
2022/09/25 09:22:47;;;;;;;2.90;1.52;;;;;;;11.20;78.23;101571.13;5045979;28;20121;-45
2022/09/25 09:25:56;;;;;;;6.75;1.67;;;;;;;11.21;78.20;101569.94;5042259;28;20052;-45
2022/09/25 09:29:10;;;;;;;3.67;1.45;;;;;;;11.31;78.45;101564.06;5042875;28;20476;-44
2022/09/25 09:32:19;;;;;;;7.20;2.40;;;;;;;11.38;77.98;101567.97;5035675;28;20048;-46
2022/09/25 09:35:06;;;;;;;4.43;2.00;;;;;;;11.43;78.22;101550.34;5042702;28;20438;-45
2022/09/25 09:38:19;;;;;;;2.70;1.63;;;;;;;11.52;77.91;101537.25;5041625;28;20045;-43
2022/09/25 09:41:12;;;;;;;;;;;;;;;11.62;77.85;101534.91;5039406;28;20056;-44
2022/09/25 09:44:00;;;;;;;;;;;;;;;11.76;77.62;101536.66;5032359;28;19999;-50
2022/09/25 09:46:47;;;;;;;8.23;3.13;;;;;;;11.88;77.54;101525.69;5045627;28;19932;-47
2022/09/25 09:49:52;;;;;;;7.97;3.33;;;;;;;12.04;77.48;101521.19;5043917;28;20045;-44
2022/09/25 09:52:42;;;;;;;8.45;2.20;;;;;;;12.23;77.27;101518.78;5044401;28;20064;-46
2022/09/25 09:55:47;;;;;;;2.70;1.67;;;;;;;12.32;76.86;101511.19;5045482;28;20048;-43
2022/09/25 09:58:34;;;;;;;3.30;1.92;;;;;;;12.36;76.82;101509.38;5035332;28;20406;-46
2022/09/25 10:01:24;;;;;;;3.83;1.75;;;;;;;12.41;76.65;101503.63;5038538;28;20424;-45
2022/09/25 10:04:36;;;;;;;8.05;2.33;;;;;;;12.48;76.77;101503.06;5036583;28;20057;-45
2022/09/25 10:07:27;;;;;;;4.28;2.03;;;;;;;12.67;76.77;101495.88;5037834;28;20048;-45
2022/09/25 10:10:16;;;;;;;6.03;1.83;;;;;;;12.83;76.40;101499.63;5042299;28;20049;-43
2022/09/25 10:13:16;;;;;;;5.55;1.70;;;;;;;13.01;76.13;101491.09;5035185;28;20048;-44
2022/09/25 10:16:10;;;;;;;3.05;1.50;;;;;;;13.25;76.01;101510.66;5042182;28;20064;-47
2022/09/25 10:19:06;;;;;;;5.07;2.17;;;;;;;13.42;75.70;101499.34;5042810;28;20355;-47
2022/09/25 10:22:02;;;;;;;5.93;1.35;;;;;;;13.45;75.41;101487.50;5040828;28;20064;-44
2022/09/25 10:24:52;;;;;;;3.78;1.73;;;;;;;13.43;75.43;101492.59;5042305;28;20064;-44
2022/09/25 10:27:44;;;;;;;3.90;1.13;;;;;;;13.39;75.19;101488.91;5036680;28;20056;-42
2022/09/25 10:30:32;;;;;;;5.45;2.53;;;;;;;13.40;75.16;101487.72;5041696;28;20049;-42
2022/09/25 10:33:24;;;;;;;2.75;1.55;;;;;;;13.52;75.01;101484.97;5041292;28;20045;-42
2022/09/25 10:36:11;;;;;;;4.70;1.45;;;;;;;13.76;74.62;101473.84;5045492;28;20049;-41
2022/09/25 10:39:00;;;;;;;6.32;1.70;;;;;;;14.03;74.36;101464.75;5040527;28;20056;-42
2022/09/25 10:42:40;;;;;;;3.42;1.40;;;;;;;14.36;73.55;101444.25;5042994;28;20104;-43
2022/09/25 10:45:35;;;;;;;5.85;1.50;;;;;;;14.48;73.11;101449.81;5043593;28;20056;-45
2022/09/25 10:52:04;;;;;;;4.57;1.38;;;;;;;14.29;73.01;101441.25;5036363;28;20045;-43
2022/09/25 10:55:11;;;;;;;5.07;1.52;;;;;;;14.22;73.21;101438.22;5030916;28;20061;-49
2022/09/25 10:58:10;;;;;;;7.43;1.30;;;;;;;14.09;72.98;101434.69;5038323;28;20510;-46
2022/09/25 11:01:00;;;;;;;3.53;1.20;;;;;;;14.02;73.04;101446.44;5042061;28;20487;-46
2022/09/25 11:03:55;;;;;;;5.97;1.40;;;;;;;14.04;73.13;101449.66;5039036;28;20054;-45
2022/09/25 11:06:51;;;;;;;4.03;1.23;;;;;;;14.23;73.04;101445.44;5040946;28;20045;-44
2022/09/25 11:09:43;;;;;;;2.80;1.00;;;;;;;14.41;72.49;101430.06;5038710;28;20052;-46
2022/09/25 11:12:31;;;;;;;2.72;1.08;;;;;;;14.52;72.20;101434.00;5042435;28;20049;-47
2022/09/25 11:15:22;;;;;;;3.00;1.23;;;;;;;14.56;72.15;101437.69;5038172;28;20402;-45
2022/09/25 11:18:36;;;;;;;3.10;0.82;;;;;;;14.52;71.59;101436.78;5035678;28;20054;-43
2022/09/25 11:21:36;;;;;;;4.50;1.20;;;;;;;14.51;71.62;101435.13;5040579;28;20084;-48
2022/09/25 11:24:29;;;;;;;2.00;0.82;;;;;;;14.55;71.54;101441.63;5039141;28;20056;-47
2022/09/25 11:27:22;;;;;;;4.20;1.65;;;;;;;14.63;71.37;101444.28;5038648;28;20056;-45
2022/09/25 11:30:15;;;;;;;4.10;1.55;;;;;;;14.71;71.13;101445.28;5035437;28;20147;-45
2022/09/25 11:33:26;;;;;;;2.97;1.05;;;;;;;14.84;70.86;101441.25;5037489;28;20490;-47
2022/09/25 11:36:34;;;;;;;2.33;0.82;;;;;;;14.90;70.66;101420.31;5041028;28;20414;-49
2022/09/25 11:42:40;;;;;;;3.20;0.90;;;;;;;14.92;70.11;101404.03;5045288;28;20737;-51
2022/09/25 11:45:29;;;;;;;3.22;0.80;;;;;;;15.00;69.63;101397.47;5047380;28;20115;-46
2022/09/25 11:48:36;;;;;;;2.05;0.68;;;;;;;15.12;69.15;101377.84;5046335;28;20053;-45
2022/09/25 11:51:51;;;;;;;1.02;0.70;;;;;;;15.10;68.52;101374.63;5045976;28;20397;-45
2022/09/25 11:55:08;;;;;;;5.70;2.80;;;;;;;15.04;68.54;101376.06;5033111;28;20056;-45
2022/09/25 11:58:14;;;;;;;0.65;0.60;;;;;;;15.06;68.27;101356.97;5032246;28;20052;-45
2022/09/25 12:01:35;;;;;;;2.03;0.40;;;;;;;15.12;68.07;101355.53;5047087;28;20052;-45
2022/09/25 12:04:22;;;;;;;1.75;0.82;;;;;;;15.21;67.89;101367.34;5046813;28;20037;-44
2022/09/25 12:07:24;;;;;;;3.20;0.57;;;;;;;15.22;67.69;101360.56;5046263;28;20076;-46
2022/09/25 12:10:24;;;;;;;1.83;0.60;;;;;;;15.11;67.57;101353.94;5047904;28;20049;-46
2022/09/25 12:13:17;;;;;;;1.45;0.77;;;;;;;14.96;67.35;101363.09;5050109;28;20052;-49
2022/09/25 12:16:22;;;;;;;3.53;0.63;;;;;;;14.84;67.34;101360.41;5051193;28;20487;-47
2022/09/25 12:19:28;;;;;;;3.35;0.55;;;;;;;14.70;67.19;101357.25;5050739;28;20052;-44
2022/09/25 12:22:27;;;;;;;0.50;0.50;;;;;;;14.56;67.30;101354.09;5040818;28;20060;-45
2022/09/25 12:25:35;;;;;;;2.72;0.77;;;;;;;14.48;67.45;101349.50;5026977;28;20068;-45
2022/09/25 12:28:51;;;;;;;1.58;0.63;;;;;;;14.50;67.40;101349.94;5040911;28;20041;-46
2022/09/25 12:32:03;;;;;;;2.90;0.82;;;;;;;14.50;67.42;101349.94;5042686;28;20049;-46
2022/09/25 12:35:32;;;;;;;1.45;0.85;;;;;;;14.62;67.33;101341.50;5046341;28;20048;-45
2022/09/25 12:38:37;;;;;;;1.70;0.80;;;;;;;14.80;67.41;101328.84;5043371;28;20068;-45
2022/09/25 12:41:32;;;;;;;1.52;0.50;;;;;;;15.03;67.31;101317.88;5044343;28;20466;-46